Terminal Aerodrome Forecast
Issued by NWS

Home | Current Version | Previous Version | Text Only | Print | Product List | Glossary On
Versions: 1 2 3 4 5 6 7 8 9 10 11 12 13 14 15 16 17 18 19 20
000
FTUS42 KMHX 311442 AAB
TAFPGV
TAF AMD
KPGV 311442Z 3115/0112 04005KT 4SM SHRA BKN025 OVC040
      TEMPO 3115/3117 2SM SHRA
     FM312000 15005KT P6SM VCSH BKN030
      TEMPO 0102/0106 4SM BR BKN010
     FM010600 00000KT 1SM BR OVC003
      AMD LTD TO CLD VIS AND WIND=

USA.gov is the U.S. government's official web portal to all federal, state and local government web resources and services.